createdAt,value
2023-09-23T00:02:41.366Z,99271.56
2023-09-23T00:05:44.576Z,99277.97
2023-09-23T00:08:46.592Z,99274.69
2023-09-23T00:11:48.528Z,99289.13
2023-09-23T00:14:50.195Z,99286.22
2023-09-23T00:17:53.488Z,99293.22
2023-09-23T00:20:55.281Z,99285.94
2023-09-23T00:23:56.942Z,99289.38
2023-09-23T00:26:58.641Z,99287.75
2023-09-23T00:30:00.261Z,99289.84
2023-09-23T00:33:03.581Z,99292.72
2023-09-23T00:36:05.930Z,99292.13
2023-09-23T00:39:07.607Z,99282.06
2023-09-23T00:42:09.651Z,99292.41
2023-09-23T00:45:11.441Z,99305.34
2023-09-23T00:48:15.921Z,99307.84
2023-09-23T00:51:18.339Z,99299.25
2023-09-23T00:54:20.072Z,99294.28
2023-09-23T00:57:21.825Z,99294.47
2023-09-23T01:00:23.515Z,99294.81
2023-09-23T01:03:26.686Z,99299.53
2023-09-23T01:06:28.212Z,99298.31
2023-09-23T01:09:29.922Z,99301.94
2023-09-23T01:12:31.746Z,99308.31
2023-09-23T01:15:33.646Z,99310.91
2023-09-23T01:18:36.679Z,99315.63
2023-09-23T01:21:38.370Z,99323.97
2023-09-23T01:24:41.431Z,99319.97
2023-09-23T01:27:43.082Z,99320.56
2023-09-23T01:30:44.772Z,99330.22
2023-09-23T01:33:46.440Z,99328.97
2023-09-23T01:36:48.084Z,99336.31
2023-09-23T01:39:51.180Z,99335.38
2023-09-23T01:42:52.862Z,99344.03
2023-09-23T01:45:54.509Z,99349.44
2023-09-23T01:48:56.157Z,99346.59
2023-09-23T01:51:57.813Z,99342.47
2023-09-23T01:55:00.853Z,99348.50
2023-09-23T01:58:02.566Z,99361.03
2023-09-23T02:01:04.330Z,99359.75
2023-09-23T02:04:06.095Z,99368.78
2023-09-23T02:07:08.142Z,99369.41
2023-09-23T02:10:11.285Z,99369.22
2023-09-23T02:13:12.992Z,99364.88
2023-09-23T02:16:14.699Z,99370.09
2023-09-23T02:19:16.386Z,99369.91
2023-09-23T02:22:18.126Z,99380.00
2023-09-23T02:25:21.320Z,99378.56
2023-09-23T02:28:22.777Z,99381.13
2023-09-23T02:31:24.486Z,99378.56
2023-09-23T02:34:26.189Z,99391.69
2023-09-23T02:37:27.858Z,99394.44
2023-09-23T02:40:30.912Z,99396.13
2023-09-23T02:43:32.587Z,99401.41
2023-09-23T02:46:34.317Z,99404.09
2023-09-23T02:49:36.023Z,99400.91
2023-09-23T02:52:38.626Z,99406.50
2023-09-23T02:55:41.774Z,99415.28
2023-09-23T02:58:43.621Z,99409.25
2023-09-23T03:01:45.401Z,99412.31
2023-09-23T03:04:47.215Z,99408.31
2023-09-23T03:07:49.021Z,99402.22
2023-09-23T03:10:52.063Z,99397.31
2023-09-23T03:13:53.814Z,99403.06
2023-09-23T03:16:55.697Z,99399.19
2023-09-23T03:19:57.429Z,99395.44
2023-09-23T03:22:59.141Z,99392.38
2023-09-23T03:26:02.248Z,99392.88
2023-09-23T03:29:04.013Z,99393.06
2023-09-23T03:32:05.807Z,99409.44
2023-09-23T03:35:08.089Z,99434.13
2023-09-23T03:38:09.777Z,99432.34
2023-09-23T03:41:13.127Z,99441.63
2023-09-23T03:44:15.534Z,99443.91
2023-09-23T03:47:17.452Z,99445.66
2023-09-23T03:50:19.217Z,99442.78
2023-09-23T03:53:21.419Z,99434.22
2023-09-23T03:56:24.596Z,99450.09
2023-09-23T03:59:26.435Z,99454.97
2023-09-23T04:02:28.252Z,99434.66
2023-09-23T04:05:32.293Z,99444.31
2023-09-23T04:08:34.104Z,99448.41
2023-09-23T04:11:37.114Z,99461.03
2023-09-23T04:14:38.793Z,99477.91
2023-09-23T04:17:40.523Z,99488.91
2023-09-23T04:20:42.239Z,99475.59
2023-09-23T04:23:43.920Z,99461.66
2023-09-23T04:26:47.269Z,99456.25
2023-09-23T04:29:48.973Z,99498.00
2023-09-23T04:32:50.813Z,99495.56
2023-09-23T04:35:52.538Z,99503.97
2023-09-23T04:38:54.241Z,99503.53
2023-09-23T04:41:57.319Z,99465.06
2023-09-23T04:44:58.989Z,99444.16
2023-09-23T04:48:00.691Z,99407.41
2023-09-23T04:51:02.351Z,99429.19
2023-09-23T04:54:04.309Z,99444.09
2023-09-23T04:57:07.351Z,99444.59
2023-09-23T05:00:09.927Z,99443.84
2023-09-23T05:03:11.670Z,99450.38
2023-09-23T05:06:13.377Z,99452.19
2023-09-23T05:09:15.082Z,99457.03
2023-09-23T05:12:18.198Z,99473.41
2023-09-23T05:15:19.926Z,99466.31
2023-09-23T05:18:21.599Z,99461.47
2023-09-23T05:21:23.270Z,99469.16
2023-09-23T05:24:24.968Z,99481.06
2023-09-23T05:27:27.972Z,99486.91
2023-09-23T05:30:29.636Z,99485.84
2023-09-23T05:33:31.338Z,99499.34
2023-09-23T05:36:33.037Z,99494.31
2023-09-23T05:39:34.723Z,99509.81
2023-09-23T05:42:37.822Z,99536.03
2023-09-23T05:45:39.470Z,99556.50
2023-09-23T05:48:41.147Z,99571.41
2023-09-23T05:51:42.841Z,99575.22
2023-09-23T05:54:44.483Z,99565.72
2023-09-23T05:57:47.533Z,99572.78
2023-09-23T06:00:49.169Z,99568.28
2023-09-23T06:03:50.940Z,99575.22
2023-09-23T06:06:52.673Z,99586.44
2023-09-23T06:09:54.354Z,99580.09
2023-09-23T06:12:57.401Z,99559.03
2023-09-23T06:16:02.638Z,99533.47
2023-09-23T06:19:04.375Z,99548.47
2023-09-23T06:22:06.071Z,99533.41
2023-09-23T06:25:08.463Z,99570.78
2023-09-23T06:28:11.560Z,99611.38
2023-09-23T06:31:13.204Z,99644.47
2023-09-23T06:34:14.880Z,99666.25
2023-09-23T06:37:16.568Z,99695.91
2023-09-23T06:40:18.268Z,99712.28
2023-09-23T06:43:21.267Z,99713.19
2023-09-23T06:46:23.332Z,99711.84
2023-09-23T06:49:24.991Z,99723.19
2023-09-23T06:52:26.653Z,99739.88
2023-09-23T06:55:28.327Z,99767.88
2023-09-23T06:58:31.405Z,99773.56
2023-09-23T07:01:33.197Z,99783.44
2023-09-23T07:04:35.044Z,99794.47
2023-09-23T07:07:36.772Z,99796.22
2023-09-23T07:10:39.900Z,99768.41
2023-09-23T07:13:42.964Z,99772.63
2023-09-23T07:16:44.624Z,99779.41
2023-09-23T07:19:47.193Z,99791.09
2023-09-23T07:22:49.017Z,99789.06
2023-09-23T07:25:51.650Z,99771.31
2023-09-23T07:28:54.818Z,99770.03
2023-09-23T07:31:56.826Z,99797.41
2023-09-23T07:34:58.642Z,99785.97
2023-09-23T07:38:00.686Z,99770.88
2023-09-23T07:41:02.435Z,99775.56
2023-09-23T07:44:05.975Z,99803.59
2023-09-23T07:47:07.721Z,99820.44
2023-09-23T07:50:10.146Z,99816.38
2023-09-23T07:53:11.858Z,99828.53
2023-09-23T07:56:13.621Z,99811.72
2023-09-23T07:59:16.769Z,99826.09
2023-09-23T08:02:18.542Z,99835.72
2023-09-23T08:05:20.441Z,99819.28
2023-09-23T08:08:22.228Z,99804.47
2023-09-23T08:11:24.033Z,99791.09
2023-09-23T08:14:27.223Z,99782.19
2023-09-23T08:17:29.067Z,99761.38
2023-09-23T08:20:30.931Z,99762.19
2023-09-23T08:23:32.829Z,99690.75
2023-09-23T08:26:34.597Z,99682.72
2023-09-23T08:29:37.657Z,99694.94
2023-09-23T08:32:39.759Z,99712.66
2023-09-23T08:35:41.532Z,99723.84
2023-09-23T08:38:43.240Z,99696.63
2023-09-23T08:41:50.744Z,99708.44
2023-09-23T08:44:54.670Z,99691.38
2023-09-23T08:47:58.020Z,99679.94
2023-09-23T08:51:01.490Z,99654.75
2023-09-23T08:54:06.601Z,99647.13
2023-09-23T08:57:09.343Z,99645.06
2023-09-23T09:00:13.797Z,99636.72
2023-09-23T09:03:15.586Z,99646.56
2023-09-23T09:06:17.420Z,99660.28
2023-09-23T09:09:19.432Z,99647.28
2023-09-23T09:12:21.600Z,99651.31
2023-09-23T09:15:24.668Z,99651.38
2023-09-23T09:18:26.335Z,99657.41
2023-09-23T09:21:27.988Z,99664.84
2023-09-23T09:24:30.996Z,99678.97
2023-09-23T09:27:32.662Z,99686.03
2023-09-23T09:30:36.016Z,99678.59
2023-09-23T09:33:38.758Z,99686.69
2023-09-23T09:36:40.813Z,99697.72
2023-09-23T09:39:50.257Z,99688.94
2023-09-23T09:42:53.400Z,99684.16
2023-09-23T09:45:58.616Z,99693.19
2023-09-23T09:49:01.959Z,99672.72
2023-09-23T09:52:05.889Z,99678.22
2023-09-23T09:55:08.639Z,99653.00
2023-09-23T09:58:10.470Z,99673.75
2023-09-23T10:01:13.731Z,99686.25
2023-09-23T10:04:19.240Z,99684.94
2023-09-23T10:07:21.168Z,99699.66
2023-09-23T10:10:31.794Z,99702.91
2023-09-23T10:13:33.462Z,99717.59
2023-09-23T10:16:36.562Z,99717.00
2023-09-23T10:19:39.676Z,99717.81
2023-09-23T10:22:51.741Z,99721.50
2023-09-23T10:25:53.738Z,99726.00
2023-09-23T10:28:58.905Z,99731.81
2023-09-23T10:32:10.975Z,99739.06
2023-09-23T10:35:12.711Z,99734.81
2023-09-23T10:38:21.640Z,99738.69
2023-09-23T10:41:32.219Z,99724.47
2023-09-23T10:44:34.003Z,99717.00
2023-09-23T10:47:37.614Z,99721.13
2023-09-23T10:50:39.521Z,99719.56
2023-09-23T10:53:41.736Z,99714.38
2023-09-23T10:56:43.379Z,99715.16
2023-09-23T10:59:45.231Z,99715.75
2023-09-23T11:02:53.637Z,99715.41
2023-09-23T11:05:55.885Z,99719.97
2023-09-23T11:08:57.562Z,99726.75
2023-09-23T11:12:07.210Z,99728.69
2023-09-23T11:15:09.506Z,99733.66
2023-09-23T11:18:14.685Z,99736.84
2023-09-23T11:21:16.427Z,99742.00
2023-09-23T11:24:18.142Z,99749.19
2023-09-23T11:27:19.854Z,99754.56
2023-09-23T11:30:21.556Z,99761.81
2023-09-23T11:33:24.883Z,99766.28
2023-09-23T11:36:26.644Z,99772.38
2023-09-23T11:39:32.216Z,99771.28
2023-09-23T11:42:33.921Z,99770.16
2023-09-23T11:45:35.635Z,99768.59
2023-09-23T11:48:43.383Z,99757.06
2023-09-23T11:51:46.458Z,99761.59
2023-09-23T11:54:47.933Z,99756.00
2023-09-23T11:57:49.878Z,99750.41
2023-09-23T12:00:51.588Z,99752.00
2023-09-23T12:03:53.465Z,99763.56
2023-09-23T12:06:56.674Z,99760.25
2023-09-23T12:09:58.340Z,99763.03
2023-09-23T12:13:00.020Z,99776.09
2023-09-23T12:16:01.670Z,99773.19
2023-09-23T12:19:03.570Z,99774.66
2023-09-23T12:22:06.637Z,99780.75
2023-09-23T12:25:08.379Z,99778.16
2023-09-23T12:28:10.103Z,99781.25
2023-09-23T12:31:11.861Z,99791.84
2023-09-23T12:34:13.577Z,99788.13
2023-09-23T12:37:16.628Z,99788.25
2023-09-23T12:40:18.246Z,99808.47
2023-09-23T12:43:19.928Z,99814.78
2023-09-23T12:46:21.659Z,99797.25
2023-09-23T12:49:23.317Z,99789.50
2023-09-23T12:52:26.333Z,99771.50
2023-09-23T12:55:28.033Z,99770.03
2023-09-23T12:58:29.728Z,99781.72
2023-09-23T13:01:31.459Z,99793.19
2023-09-23T13:04:33.154Z,99804.13
2023-09-23T13:07:36.312Z,99817.84
2023-09-23T13:10:37.903Z,99825.22
2023-09-23T13:13:39.602Z,99824.00
2023-09-23T13:16:42.058Z,99814.59
2023-09-23T13:19:45.257Z,99795.97
2023-09-23T13:22:48.657Z,99792.78
2023-09-23T13:25:50.662Z,99789.91
2023-09-23T13:28:52.916Z,99794.91
2023-09-23T13:31:54.643Z,99792.66
2023-09-23T13:34:56.808Z,99784.38
2023-09-23T13:38:00.355Z,99788.44
2023-09-23T13:41:03.417Z,99784.66
2023-09-23T13:44:05.787Z,99787.09
2023-09-23T13:47:07.620Z,99783.19
2023-09-23T13:50:09.802Z,99790.88
2023-09-23T13:53:13.632Z,99805.50
2023-09-23T13:56:16.144Z,99815.78
2023-09-23T13:59:17.888Z,99815.38
2023-09-23T14:02:20.124Z,99826.63
2023-09-23T14:05:22.790Z,99836.88
2023-09-23T14:08:25.950Z,99852.22
2023-09-23T14:11:28.208Z,99857.78
2023-09-23T14:14:30.430Z,99859.97
2023-09-23T14:17:32.731Z,99868.00
2023-09-23T14:20:35.733Z,99865.84
2023-09-23T14:23:38.890Z,99850.16
2023-09-23T14:26:41.081Z,99843.31
2023-09-23T14:29:43.761Z,99838.03
2023-09-23T14:32:45.552Z,99831.41
2023-09-23T14:35:48.137Z,99838.78
2023-09-23T14:38:51.925Z,99823.75
2023-09-23T14:41:54.667Z,99827.84
2023-09-23T14:44:56.819Z,99821.94
2023-09-23T14:47:59.061Z,99823.34
2023-09-23T14:51:02.130Z,99809.00
2023-09-23T14:54:05.621Z,99767.16
2023-09-23T14:57:07.788Z,99763.25
2023-09-23T15:00:10.238Z,99771.56
2023-09-23T15:03:12.546Z,99784.50
2023-09-23T15:06:15.281Z,99823.13
2023-09-23T15:09:19.596Z,99825.75
2023-09-23T15:12:21.290Z,99801.72
2023-09-23T15:15:23.441Z,99827.06
2023-09-23T15:18:26.354Z,99834.03
2023-09-23T15:21:29.081Z,99836.66
2023-09-23T15:24:32.797Z,99842.25
2023-09-23T15:27:35.380Z,99834.69
2023-09-23T15:30:38.036Z,99849.38
2023-09-23T15:33:40.709Z,99853.03
2023-09-23T15:36:43.019Z,99848.88
2023-09-23T15:39:47.396Z,99847.03
2023-09-23T15:42:51.450Z,99853.00
2023-09-23T15:45:59.874Z,99859.19
2023-09-23T15:49:02.356Z,99864.91
2023-09-23T15:52:04.881Z,99882.41
2023-09-23T15:55:08.419Z,99875.47
2023-09-23T15:58:10.963Z,99877.59
2023-09-23T16:01:12.868Z,99887.06
2023-09-23T16:04:14.831Z,99890.78
2023-09-23T16:07:17.535Z,99885.59
2023-09-23T16:10:21.253Z,99873.91
2023-09-23T16:13:23.770Z,99870.00
2023-09-23T16:16:26.542Z,99864.41
2023-09-23T16:19:28.833Z,99856.63
2023-09-23T16:22:31.419Z,99854.88
2023-09-23T16:25:34.999Z,99870.19
2023-09-23T16:28:36.693Z,99896.03
2023-09-23T16:31:38.836Z,99900.75
2023-09-23T16:34:41.078Z,99912.66
2023-09-23T16:37:43.772Z,99918.72
2023-09-23T16:40:47.876Z,99921.13
2023-09-23T16:43:50.051Z,99915.75
2023-09-23T16:46:52.814Z,99914.72
2023-09-23T16:49:55.735Z,99912.16
2023-09-23T16:52:57.886Z,99919.94
2023-09-23T16:56:00.946Z,99927.25
2023-09-23T16:59:03.662Z,99931.66
2023-09-23T17:02:05.935Z,99933.63
2023-09-23T17:05:08.600Z,99941.63
2023-09-23T17:08:11.468Z,99955.28
2023-09-23T17:11:15.212Z,99960.47
2023-09-23T17:14:17.573Z,99969.28
2023-09-23T17:17:22.175Z,99971.16
2023-09-23T17:20:25.247Z,99983.09
2023-09-23T17:23:27.887Z,99976.31
2023-09-23T17:26:32.749Z,99970.53
2023-09-23T17:29:35.380Z,99944.84
2023-09-23T17:32:37.227Z,99941.25
2023-09-23T17:35:39.546Z,99936.75
2023-09-23T17:38:42.090Z,99931.69
2023-09-23T17:41:46.253Z,99937.47
2023-09-23T17:44:48.923Z,99935.66
2023-09-23T17:47:51.980Z,99928.88
2023-09-23T17:50:56.508Z,99918.84
2023-09-23T17:54:00.039Z,99917.91
2023-09-23T17:57:04.606Z,99913.03
2023-09-23T18:00:08.793Z,99909.66
2023-09-23T18:03:11.292Z,99898.97
2023-09-23T18:06:13.201Z,99904.09
2023-09-23T18:09:16.026Z,99905.44
2023-09-23T18:12:19.213Z,99892.13
2023-09-23T18:15:21.982Z,99896.72
2023-09-23T18:18:24.456Z,99893.66
2023-09-23T18:21:26.646Z,99875.09
2023-09-23T18:24:29.629Z,99876.13
2023-09-23T18:27:37.938Z,99878.56
2023-09-23T18:30:41.046Z,99874.03
2023-09-23T18:33:43.581Z,99863.88
2023-09-23T18:36:46.313Z,99867.53
2023-09-23T18:39:51.008Z,99873.03
2023-09-23T18:42:56.272Z,99867.03
2023-09-23T18:45:59.138Z,99871.41
2023-09-23T18:49:01.784Z,99858.31
2023-09-23T18:52:04.801Z,99874.88
2023-09-23T18:55:08.177Z,99893.34
2023-09-23T18:58:12.364Z,99896.13
2023-09-23T19:01:15.363Z,99900.53
2023-09-23T19:04:17.644Z,99912.53
2023-09-23T19:07:20.793Z,99911.81
2023-09-23T19:10:24.043Z,99919.44
2023-09-23T19:13:27.639Z,99920.78
2023-09-23T19:16:30.952Z,99914.94
2023-09-23T19:19:33.425Z,99913.78
2023-09-23T19:22:35.573Z,99926.63
2023-09-23T19:25:37.724Z,99955.06
2023-09-23T19:28:42.010Z,99961.84
2023-09-23T19:31:44.493Z,99967.28
2023-09-23T19:34:47.115Z,99974.41
2023-09-23T19:37:51.485Z,99956.38
2023-09-23T19:40:53.590Z,99944.31
2023-09-23T19:43:58.484Z,99927.72
2023-09-23T19:47:00.982Z,99912.94
2023-09-23T19:50:04.135Z,99909.38
2023-09-23T19:53:07.442Z,99916.47
2023-09-23T19:56:09.515Z,99920.78
2023-09-23T19:59:13.901Z,99928.59
2023-09-23T20:02:16.618Z,99933.84
2023-09-23T20:05:19.848Z,99938.66
2023-09-23T20:08:22.058Z,99942.22
2023-09-23T20:11:24.252Z,99946.13
2023-09-23T20:14:28.746Z,99944.84
2023-09-23T20:17:31.491Z,99947.34
2023-09-23T20:20:34.408Z,99947.19
2023-09-23T20:23:37.103Z,99956.03
2023-09-23T20:26:39.894Z,99973.09
2023-09-23T20:29:59.790Z,99965.81
2023-09-23T20:33:08.129Z,99923.50
2023-09-23T20:36:10.409Z,99894.66
2023-09-23T20:39:12.970Z,99904.47
2023-09-23T20:42:14.990Z,99924.72
2023-09-23T20:45:19.531Z,99920.22
2023-09-23T20:48:21.789Z,99903.34
2023-09-23T20:51:23.963Z,99888.22
2023-09-23T20:54:26.136Z,99868.31
2023-09-23T20:57:27.859Z,99850.25
2023-09-23T21:00:31.114Z,99837.13
2023-09-23T21:03:32.911Z,99838.75
2023-09-23T21:06:34.813Z,99855.00
2023-09-23T21:09:36.601Z,99873.13
2023-09-23T21:12:38.312Z,99873.03
2023-09-23T21:15:41.432Z,99881.56
2023-09-23T21:18:43.237Z,99876.19
2023-09-23T21:21:44.847Z,99884.72
2023-09-23T21:24:46.473Z,99887.06
2023-09-23T21:27:48.127Z,99901.81
2023-09-23T21:30:51.686Z,99907.31
2023-09-23T21:33:53.363Z,99900.78
2023-09-23T21:36:55.043Z,99898.09
2023-09-23T21:39:56.690Z,99895.34
2023-09-23T21:42:58.505Z,99895.28
2023-09-23T21:46:01.630Z,99881.69
2023-09-23T21:49:03.364Z,99886.94
2023-09-23T21:52:05.040Z,99900.38
2023-09-23T21:55:07.212Z,99901.53
2023-09-23T21:58:08.910Z,99915.72
2023-09-23T22:01:11.995Z,99916.56
2023-09-23T22:04:13.840Z,99904.69
2023-09-23T22:07:15.685Z,99902.16
2023-09-23T22:10:17.406Z,99905.44
2023-09-23T22:13:19.070Z,99894.06
2023-09-23T22:16:22.167Z,99901.97
2023-09-23T22:19:23.941Z,99899.28
2023-09-23T22:22:25.702Z,99907.81
2023-09-23T22:25:27.392Z,99908.59
2023-09-23T22:28:29.048Z,99918.22
2023-09-23T22:31:32.173Z,99918.53
2023-09-23T22:34:33.925Z,99923.75
2023-09-23T22:37:35.605Z,99921.34
2023-09-23T22:40:37.316Z,99925.72
2023-09-23T22:43:38.933Z,99919.59
2023-09-23T22:46:42.042Z,99934.41
2023-09-23T22:49:43.860Z,99934.34
2023-09-23T22:52:45.562Z,99930.75
2023-09-23T22:55:47.258Z,99947.81
2023-09-23T22:58:48.992Z,99947.66
2023-09-23T23:01:52.164Z,99946.63
2023-09-23T23:04:53.847Z,99957.22
2023-09-23T23:07:55.545Z,99967.06
2023-09-23T23:10:57.243Z,99964.25
2023-09-23T23:13:58.898Z,99956.97
2023-09-23T23:17:01.955Z,99963.47
2023-09-23T23:20:04.352Z,99963.59
2023-09-23T23:23:06.131Z,99966.31
2023-09-23T23:26:08.286Z,99964.03
2023-09-23T23:29:09.983Z,99960.28
2023-09-23T23:32:13.075Z,99949.66
2023-09-23T23:35:15.047Z,99951.81
2023-09-23T23:38:16.650Z,99963.25
2023-09-23T23:41:18.346Z,99952.28
2023-09-23T23:44:20.089Z,99944.97
2023-09-23T23:47:23.297Z,99956.31
2023-09-23T23:50:25.120Z,99954.69
2023-09-23T23:53:27.074Z,99953.28
2023-09-23T23:56:28.828Z,99963.78
2023-09-23T23:59:30.613Z,99963.03
